createdAt,value
2018-09-16T00:01:40.598Z,20.34
2018-09-16T00:04:08.244Z,20.35
2018-09-16T00:06:35.890Z,20.34
2018-09-16T00:09:05.881Z,20.35
2018-09-16T00:11:33.812Z,20.35
2018-09-16T00:14:01.483Z,20.35
2018-09-16T00:16:29.146Z,20.33
2018-09-16T00:18:56.767Z,20.33
2018-09-16T00:21:24.875Z,20.34
2018-09-16T00:23:52.541Z,20.35
2018-09-16T00:26:20.185Z,20.33
2018-09-16T00:28:47.833Z,20.33
2018-09-16T00:31:15.797Z,20.33
2018-09-16T00:33:43.542Z,20.32
2018-09-16T00:36:11.269Z,20.33
2018-09-16T00:38:39.045Z,20.33
2018-09-16T00:41:07.121Z,20.32
2018-09-16T00:43:34.744Z,20.32
2018-09-16T00:46:02.446Z,20.33
2018-09-16T00:48:30.149Z,20.32
2018-09-16T00:50:58.056Z,20.33
2018-09-16T00:53:25.680Z,20.31
2018-09-16T00:55:53.549Z,20.31
2018-09-16T00:58:21.855Z,20.31
2018-09-16T01:00:58.587Z,20.30
2018-09-16T01:03:26.288Z,20.29
2018-09-16T01:06:00.060Z,20.30
2018-09-16T01:08:27.664Z,20.28
2018-09-16T01:10:56.789Z,20.29
2018-09-16T01:13:24.466Z,20.27
2018-09-16T01:15:52.150Z,20.29
2018-09-16T01:18:19.796Z,20.29
2018-09-16T01:20:47.461Z,20.29
2018-09-16T01:23:15.090Z,20.26
2018-09-16T01:25:43.234Z,20.26
2018-09-16T01:28:11.044Z,20.28
2018-09-16T01:30:38.908Z,20.26
2018-09-16T01:33:06.684Z,20.26
2018-09-16T01:35:34.625Z,20.26
2018-09-16T01:38:07.721Z,20.24
2018-09-16T01:40:35.673Z,20.24
2018-09-16T01:43:03.354Z,20.23
2018-09-16T01:45:31.901Z,20.23
2018-09-16T01:48:00.492Z,20.22
2018-09-16T01:50:28.474Z,20.22
2018-09-16T01:52:56.104Z,20.21
2018-09-16T01:55:24.142Z,20.19
2018-09-16T01:57:52.162Z,20.16
2018-09-16T02:00:23.865Z,20.18
2018-09-16T02:02:53.409Z,20.19
2018-09-16T02:05:26.844Z,20.19
2018-09-16T02:07:55.263Z,20.18
2018-09-16T02:10:23.196Z,20.17
2018-09-16T02:12:51.225Z,20.18
2018-09-16T02:15:19.801Z,20.17
2018-09-16T02:17:47.485Z,20.17
2018-09-16T02:20:15.169Z,20.18
2018-09-16T02:22:43.198Z,20.15
2018-09-16T02:25:10.887Z,20.15
2018-09-16T02:27:39.098Z,20.14
2018-09-16T02:30:07.066Z,20.12
2018-09-16T02:32:35.358Z,20.11
2018-09-16T02:35:03.001Z,20.10
2018-09-16T02:37:30.666Z,20.10
2018-09-16T02:39:58.335Z,20.09
2018-09-16T02:42:26.332Z,20.09
2018-09-16T02:44:55.262Z,20.10
2018-09-16T02:47:22.891Z,20.09
2018-09-16T02:49:50.921Z,20.09
2018-09-16T02:52:18.860Z,20.08
2018-09-16T02:54:46.511Z,20.07
2018-09-16T02:57:14.177Z,20.05
2018-09-16T02:59:42.559Z,20.05
2018-09-16T03:02:10.764Z,20.01
2018-09-16T03:04:38.415Z,20.04
2018-09-16T03:07:07.243Z,20.04
2018-09-16T03:09:35.192Z,20.03
2018-09-16T03:12:03.193Z,20.02
2018-09-16T03:14:31.196Z,20.01
2018-09-16T03:16:59.257Z,20.02
2018-09-16T03:19:27.247Z,20.02
2018-09-16T03:21:54.884Z,20.00
2018-09-16T03:24:22.535Z,20.00
2018-09-16T03:26:50.519Z,20.00
2018-09-16T03:29:18.282Z,19.98
2018-09-16T03:31:45.973Z,19.98
2018-09-16T03:34:13.992Z,19.97
2018-09-16T03:36:42.288Z,19.97
2018-09-16T03:39:10.624Z,19.97
2018-09-16T03:41:38.606Z,19.95
2018-09-16T03:44:06.674Z,19.95
2018-09-16T03:46:34.659Z,19.95
2018-09-16T03:49:02.545Z,19.94
2018-09-16T03:51:31.047Z,19.93
2018-09-16T03:53:59.037Z,19.91
2018-09-16T03:56:27.079Z,19.92
2018-09-16T03:58:54.756Z,19.93
2018-09-16T04:01:22.647Z,19.92
2018-09-16T04:03:50.373Z,19.92
2018-09-16T04:06:18.529Z,19.91
2018-09-16T04:08:46.847Z,19.91
2018-09-16T04:11:14.503Z,19.90
2018-09-16T04:13:42.680Z,19.90
2018-09-16T04:16:10.308Z,19.90
2018-09-16T04:18:37.943Z,19.90
2018-09-16T04:21:05.956Z,19.90
2018-09-16T04:23:43.016Z,19.88
2018-09-16T04:26:10.866Z,19.88
2018-09-16T04:28:39.142Z,19.90
2018-09-16T04:31:06.824Z,19.88
2018-09-16T04:33:34.525Z,19.88
2018-09-16T04:36:02.386Z,19.88
2018-09-16T04:38:32.166Z,19.87
2018-09-16T04:40:59.871Z,19.87
2018-09-16T04:43:27.806Z,19.87
2018-09-16T04:45:55.741Z,19.86
2018-09-16T04:48:23.498Z,19.87
2018-09-16T04:50:51.145Z,19.85
2018-09-16T04:53:18.803Z,19.85
2018-09-16T04:55:47.516Z,19.85
2018-09-16T04:58:15.411Z,19.85
2018-09-16T05:00:43.051Z,19.84
2018-09-16T05:03:10.961Z,19.84
2018-09-16T05:05:38.660Z,19.86
2018-09-16T05:08:06.296Z,19.85
2018-09-16T05:10:34.591Z,19.86
2018-09-16T05:13:02.753Z,19.85
2018-09-16T05:15:30.929Z,19.86
2018-09-16T05:17:58.991Z,19.87
2018-09-16T05:20:28.109Z,19.88
2018-09-16T05:22:55.748Z,19.89
2018-09-16T05:25:23.386Z,19.90
2018-09-16T05:27:51.049Z,19.90
2018-09-16T05:30:18.777Z,19.90
2018-09-16T05:32:46.401Z,19.91
2018-09-16T05:35:14.028Z,19.90
2018-09-16T05:37:42.157Z,19.91
2018-09-16T05:40:09.785Z,19.89
2018-09-16T05:42:37.441Z,19.90
2018-09-16T05:45:05.845Z,19.90
2018-09-16T05:47:33.517Z,19.89
2018-09-16T05:50:01.168Z,19.90
2018-09-16T05:52:29.150Z,19.89
2018-09-16T05:54:56.857Z,19.91
2018-09-16T05:57:24.840Z,19.92
2018-09-16T05:59:52.940Z,19.94
2018-09-16T06:02:21.422Z,19.94
2018-09-16T06:04:49.812Z,19.96
2018-09-16T06:07:17.572Z,19.97
2018-09-16T06:09:45.271Z,19.97
2018-09-16T06:12:12.958Z,19.98
2018-09-16T06:14:40.885Z,20.00
2018-09-16T06:17:08.562Z,20.01
2018-09-16T06:19:36.381Z,20.03
2018-09-16T06:22:04.012Z,20.04
2018-09-16T06:24:31.854Z,20.06
2018-09-16T06:27:00.253Z,20.07
2018-09-16T06:29:27.942Z,20.08
2018-09-16T06:31:55.631Z,20.08
2018-09-16T06:34:23.618Z,20.10
2018-09-16T06:36:53.574Z,20.12
2018-09-16T06:39:21.276Z,20.13
2018-09-16T06:41:49.204Z,20.16
2018-09-16T06:44:17.228Z,20.18
2018-09-16T06:46:44.950Z,20.19
2018-09-16T06:49:13.561Z,20.21
2018-09-16T06:51:42.082Z,20.21
2018-09-16T06:54:09.744Z,20.23
2018-09-16T06:56:37.453Z,20.23
2018-09-16T06:59:05.069Z,20.27
2018-09-16T07:01:33.271Z,20.30
2018-09-16T07:04:01.220Z,20.34
2018-09-16T07:06:32.765Z,20.33
2018-09-16T07:09:00.490Z,20.35
2018-09-16T07:11:28.765Z,20.35
2018-09-16T07:13:56.746Z,20.35
2018-09-16T07:16:24.541Z,20.35
2018-09-16T07:18:52.914Z,20.35
2018-09-16T07:21:20.861Z,20.36
2018-09-16T07:23:48.875Z,20.37
2018-09-16T07:26:16.843Z,20.35
2018-09-16T07:28:45.086Z,20.36
2018-09-16T07:31:13.298Z,20.35
2018-09-16T07:33:41.210Z,20.35
2018-09-16T07:36:09.228Z,20.33
2018-09-16T07:38:38.090Z,20.34
2018-09-16T07:41:05.772Z,20.34
2018-09-16T07:43:33.450Z,20.34
2018-09-16T07:46:01.442Z,20.37
2018-09-16T07:48:29.861Z,20.39
2018-09-16T07:50:57.488Z,20.39
2018-09-16T07:53:25.174Z,20.40
2018-09-16T07:55:53.066Z,20.41
2018-09-16T07:58:21.142Z,20.41
2018-09-16T08:00:48.811Z,20.44
2018-09-16T08:03:16.805Z,20.46
2018-09-16T08:05:44.492Z,20.49
2018-09-16T08:08:12.565Z,20.50
2018-09-16T08:10:40.225Z,20.50
2018-09-16T08:13:07.873Z,20.50
2018-09-16T08:15:35.589Z,20.52
2018-09-16T08:18:03.553Z,20.54
2018-09-16T08:20:31.631Z,20.55
2018-09-16T08:22:59.311Z,20.57
2018-09-16T08:25:26.933Z,20.58
2018-09-16T08:27:54.621Z,20.59
2018-09-16T08:30:22.310Z,20.61
2018-09-16T08:32:49.966Z,20.64
2018-09-16T08:35:17.644Z,20.66
2018-09-16T08:37:45.609Z,20.65
2018-09-16T08:40:13.732Z,20.67
2018-09-16T08:42:42.153Z,20.68
2018-09-16T08:45:09.829Z,20.67
2018-09-16T08:47:37.780Z,20.68
2018-09-16T08:50:06.467Z,20.68
2018-09-16T08:52:34.388Z,20.72
2018-09-16T08:55:02.049Z,20.74
2018-09-16T08:57:30.074Z,20.75
2018-09-16T08:59:57.934Z,20.75
2018-09-16T09:02:25.977Z,20.77
2018-09-16T09:04:53.668Z,20.78
2018-09-16T09:07:27.640Z,20.78
2018-09-16T09:09:56.715Z,20.80
2018-09-16T09:12:24.453Z,20.81
2018-09-16T09:14:52.265Z,20.83
2018-09-16T09:17:20.084Z,20.86
2018-09-16T09:19:47.726Z,20.88
2018-09-16T09:22:16.325Z,20.89
2018-09-16T09:24:43.988Z,20.92
2018-09-16T09:27:11.726Z,20.94
2018-09-16T09:29:39.416Z,20.97
2018-09-16T09:32:07.465Z,20.98
2018-09-16T09:34:35.565Z,21.00
2018-09-16T09:37:03.276Z,21.01
2018-09-16T09:39:31.227Z,21.04
2018-09-16T09:41:59.240Z,21.07
2018-09-16T09:44:27.204Z,21.09
2018-09-16T09:46:56.035Z,21.11
2018-09-16T09:49:24.637Z,21.13
2018-09-16T09:51:52.845Z,21.16
2018-09-16T09:54:20.543Z,21.20
2018-09-16T09:56:48.266Z,21.22
2018-09-16T09:59:16.382Z,21.23
2018-09-16T10:01:44.586Z,21.26
2018-09-16T10:04:12.500Z,21.26
2018-09-16T10:06:40.226Z,21.28
2018-09-16T10:09:09.681Z,21.28
2018-09-16T10:11:38.301Z,21.28
2018-09-16T10:14:06.092Z,21.30
2018-09-16T10:16:34.135Z,21.32
2018-09-16T10:19:01.841Z,21.34
2018-09-16T10:21:29.616Z,21.35
2018-09-16T10:23:57.396Z,21.39
2018-09-16T10:26:25.341Z,21.45
2018-09-16T10:28:53.313Z,21.51
2018-09-16T10:31:22.778Z,21.56
2018-09-16T10:33:50.418Z,21.57
2018-09-16T10:36:18.187Z,21.59
2018-09-16T10:38:46.408Z,21.62
2018-09-16T10:41:14.081Z,21.64
2018-09-16T10:43:42.286Z,21.66
2018-09-16T10:46:10.326Z,21.70
2018-09-16T10:48:38.037Z,21.75
2018-09-16T10:51:05.961Z,21.80
2018-09-16T10:53:33.938Z,21.84
2018-09-16T10:56:01.578Z,21.86
2018-09-16T10:58:29.229Z,21.86
2018-09-16T11:00:56.880Z,21.88
2018-09-16T11:03:25.082Z,21.90
2018-09-16T11:05:53.274Z,21.91
2018-09-16T11:08:21.307Z,21.95
2018-09-16T11:10:49.274Z,22.01
2018-09-16T11:13:17.324Z,22.05
2018-09-16T11:15:45.211Z,22.06
2018-09-16T11:18:13.196Z,22.08
2018-09-16T11:20:40.821Z,22.09
2018-09-16T11:23:08.469Z,22.11
2018-09-16T11:25:36.983Z,22.09
2018-09-16T11:28:05.141Z,22.07
2018-09-16T11:30:33.109Z,22.05
2018-09-16T11:33:00.761Z,22.04
2018-09-16T11:35:28.778Z,22.04
2018-09-16T11:37:56.491Z,22.02
2018-09-16T11:40:24.713Z,22.00
2018-09-16T11:42:52.366Z,22.03
2018-09-16T11:45:20.454Z,22.08
2018-09-16T11:47:48.447Z,22.15
2018-09-16T11:50:16.385Z,22.19
2018-09-16T11:52:44.095Z,22.21
2018-09-16T11:55:11.773Z,22.24
2018-09-16T11:57:39.459Z,22.32
2018-09-16T12:00:07.220Z,22.37
2018-09-16T12:02:35.722Z,22.38
2018-09-16T12:05:03.754Z,22.39
2018-09-16T12:07:31.789Z,22.41
2018-09-16T12:09:59.981Z,22.44
2018-09-16T12:12:27.751Z,22.47
2018-09-16T12:14:55.416Z,22.42
2018-09-16T12:17:23.304Z,22.34
2018-09-16T12:19:51.459Z,22.30
2018-09-16T12:22:19.154Z,22.28
2018-09-16T12:24:47.116Z,22.30
2018-09-16T12:27:14.769Z,22.32
2018-09-16T12:29:42.478Z,22.33
2018-09-16T12:32:10.149Z,22.31
2018-09-16T12:34:38.069Z,22.28
2018-09-16T12:37:05.894Z,22.31
2018-09-16T12:39:33.596Z,22.31
2018-09-16T12:42:01.485Z,22.32
2018-09-16T12:44:29.694Z,22.37
2018-09-16T12:46:57.414Z,22.38
2018-09-16T12:49:25.372Z,22.42
2018-09-16T12:51:53.121Z,22.43
2018-09-16T12:54:21.102Z,22.44
2018-09-16T12:56:48.986Z,22.44
2018-09-16T12:59:16.661Z,22.43
2018-09-16T13:01:44.587Z,22.42
2018-09-16T13:04:12.479Z,22.47
2018-09-16T13:06:40.110Z,22.46
2018-09-16T13:09:09.383Z,22.44
2018-09-16T13:11:37.090Z,22.49
2018-09-16T13:14:05.089Z,22.56
2018-09-16T13:16:32.753Z,22.60
2018-09-16T13:19:00.612Z,22.61
2018-09-16T13:21:28.285Z,22.67
2018-09-16T13:23:56.272Z,22.74
2018-09-16T13:26:24.310Z,22.73
2018-09-16T13:28:52.339Z,22.81
2018-09-16T13:31:19.986Z,22.95
2018-09-16T13:33:50.324Z,23.06
2018-09-16T13:36:18.121Z,23.17
2018-09-16T13:38:46.119Z,23.28
2018-09-16T13:41:13.788Z,23.34
2018-09-16T13:43:41.661Z,23.37
2018-09-16T13:46:09.394Z,23.39
2018-09-16T13:48:37.062Z,23.43
2018-09-16T13:51:04.740Z,23.43
2018-09-16T13:53:32.391Z,23.38
2018-09-16T13:56:00.164Z,23.42
2018-09-16T13:58:28.198Z,23.42
2018-09-16T14:00:56.325Z,23.38
2018-09-16T14:03:23.951Z,23.37
2018-09-16T14:05:51.852Z,23.32
2018-09-16T14:08:19.538Z,23.37
2018-09-16T14:10:48.190Z,23.38
2018-09-16T14:13:17.045Z,23.37
2018-09-16T14:15:44.685Z,23.38
2018-09-16T14:18:12.411Z,23.47
2018-09-16T14:20:40.508Z,23.42
2018-09-16T14:23:08.276Z,23.38
2018-09-16T14:25:36.547Z,23.32
2018-09-16T14:28:04.597Z,23.27
2018-09-16T14:30:32.971Z,23.31
2018-09-16T14:33:01.035Z,23.50
2018-09-16T14:35:28.838Z,23.66
2018-09-16T14:37:56.778Z,23.60
2018-09-16T14:40:24.667Z,23.51
2018-09-16T14:42:52.797Z,23.47
2018-09-16T14:45:20.805Z,23.54
2018-09-16T14:47:48.970Z,23.62
2018-09-16T14:50:16.608Z,23.63
2018-09-16T14:52:44.533Z,23.56
2018-09-16T14:55:12.534Z,23.55
2018-09-16T14:57:40.163Z,23.49
2018-09-16T15:00:07.848Z,23.43
2018-09-16T15:02:35.755Z,23.42
2018-09-16T15:05:03.700Z,23.43
2018-09-16T15:07:31.476Z,23.40
2018-09-16T15:09:59.124Z,23.34
2018-09-16T15:12:27.195Z,23.29
2018-09-16T15:14:55.100Z,23.24
2018-09-16T15:17:23.281Z,23.22
2018-09-16T15:19:51.204Z,23.23
2018-09-16T15:22:19.173Z,23.25
2018-09-16T15:24:47.391Z,23.64
2018-09-16T15:27:15.061Z,23.61
2018-09-16T15:29:42.767Z,23.49
2018-09-16T15:32:10.517Z,23.36
2018-09-16T15:34:38.191Z,23.27
2018-09-16T15:37:06.160Z,23.17
2018-09-16T15:39:34.141Z,23.08
2018-09-16T15:42:01.754Z,23.02
2018-09-16T15:44:29.716Z,22.96
2018-09-16T15:46:57.654Z,22.92
2018-09-16T15:49:25.616Z,22.86
2018-09-16T15:51:56.769Z,22.84
2018-09-16T15:54:24.438Z,22.83
2018-09-16T15:56:52.388Z,22.78
2018-09-16T15:59:20.081Z,22.75
2018-09-16T16:01:47.708Z,22.71
2018-09-16T16:04:15.646Z,22.67
2018-09-16T16:06:43.284Z,22.64
2018-09-16T16:09:11.791Z,22.61
2018-09-16T16:11:40.361Z,22.59
2018-09-16T16:14:08.627Z,22.58
2018-09-16T16:16:36.440Z,22.55
2018-09-16T16:19:04.021Z,22.54
2018-09-16T16:21:31.855Z,22.51
2018-09-16T16:23:59.754Z,22.52
2018-09-16T16:26:28.019Z,22.50
2018-09-16T16:28:55.982Z,22.49
2018-09-16T16:31:23.617Z,22.47
2018-09-16T16:33:51.881Z,22.47
2018-09-16T16:36:19.580Z,22.47
2018-09-16T16:38:47.672Z,22.46
2018-09-16T16:41:15.326Z,22.46
2018-09-16T16:43:43.257Z,22.47
2018-09-16T16:46:11.286Z,22.46
2018-09-16T16:48:39.525Z,22.48
2018-09-16T16:51:07.281Z,22.50
2018-09-16T16:53:35.552Z,22.50
2018-09-16T16:56:03.276Z,22.49
2018-09-16T16:58:30.899Z,22.49
2018-09-16T17:00:58.669Z,22.38
2018-09-16T17:03:26.646Z,22.47
2018-09-16T17:05:54.345Z,22.41
2018-09-16T17:08:22.290Z,22.38
2018-09-16T17:10:50.242Z,22.36
2018-09-16T17:13:17.907Z,22.29
2018-09-16T17:15:45.935Z,22.25
2018-09-16T17:18:13.583Z,22.21
2018-09-16T17:20:41.227Z,22.20
2018-09-16T17:23:09.208Z,22.16
2018-09-16T17:25:37.121Z,22.13
2018-09-16T17:28:05.050Z,22.10
2018-09-16T17:30:32.972Z,22.08
2018-09-16T17:33:00.721Z,22.06
2018-09-16T17:35:28.458Z,22.03
2018-09-16T17:37:56.144Z,22.01
2018-09-16T17:40:24.169Z,21.99
2018-09-16T17:42:51.864Z,21.97
2018-09-16T17:45:19.924Z,21.94
2018-09-16T17:47:47.548Z,21.93
2018-09-16T17:50:15.169Z,21.91
2018-09-16T17:52:42.837Z,21.89
2018-09-16T17:55:10.494Z,21.88
2018-09-16T17:57:38.436Z,21.87
2018-09-16T18:00:06.512Z,21.84
2018-09-16T18:02:34.463Z,21.83
2018-09-16T18:05:02.129Z,21.80
2018-09-16T18:07:30.174Z,21.78
2018-09-16T18:09:57.855Z,21.77
2018-09-16T18:12:25.567Z,21.74
2018-09-16T18:14:53.505Z,21.73
2018-09-16T18:17:21.480Z,21.73
2018-09-16T18:19:49.139Z,21.70
2018-09-16T18:22:17.169Z,21.68
2018-09-16T18:24:45.119Z,21.66
2018-09-16T18:27:13.397Z,21.65
2018-09-16T18:29:41.437Z,21.63
2018-09-16T18:32:09.087Z,21.62
2018-09-16T18:34:36.993Z,21.61
2018-09-16T18:37:04.690Z,21.60
2018-09-16T18:39:32.764Z,21.58
2018-09-16T18:42:00.413Z,21.56
2018-09-16T18:44:28.047Z,21.55
2018-09-16T18:46:55.983Z,21.53
2018-09-16T18:49:23.712Z,21.52
2018-09-16T18:51:51.668Z,21.49
2018-09-16T18:54:20.231Z,21.47
2018-09-16T18:56:48.141Z,21.47
2018-09-16T18:59:15.886Z,21.45
2018-09-16T19:01:43.643Z,21.44
2018-09-16T19:04:11.255Z,21.41
2018-09-16T19:06:39.234Z,21.41
2018-09-16T19:09:08.587Z,21.39
2018-09-16T19:11:36.463Z,21.38
2018-09-16T19:14:04.177Z,21.36
2018-09-16T19:16:32.267Z,21.35
2018-09-16T19:18:59.928Z,21.33
2018-09-16T19:21:27.594Z,21.33
2018-09-16T19:23:55.313Z,21.31
2018-09-16T19:26:23.549Z,21.29
2018-09-16T19:28:52.310Z,21.29
2018-09-16T19:31:20.055Z,21.28
2018-09-16T19:33:48.132Z,21.25
2018-09-16T19:36:15.821Z,21.25
2018-09-16T19:38:43.538Z,21.22
2018-09-16T19:41:11.250Z,21.22
2018-09-16T19:43:38.953Z,21.22
2018-09-16T19:46:06.715Z,21.21
2018-09-16T19:48:34.859Z,21.20
2018-09-16T19:51:02.969Z,21.19
2018-09-16T19:53:30.655Z,21.18
2018-09-16T19:55:58.285Z,21.18
2018-09-16T19:58:26.577Z,21.15
2018-09-16T20:00:54.200Z,21.15
2018-09-16T20:03:22.317Z,21.15
2018-09-16T20:05:49.974Z,21.13
2018-09-16T20:08:17.836Z,21.14
2018-09-16T20:10:45.559Z,21.14
2018-09-16T20:13:13.190Z,21.13
2018-09-16T20:15:40.918Z,21.12
2018-09-16T20:18:08.745Z,21.11
2018-09-16T20:20:36.368Z,21.11
2018-09-16T20:23:04.301Z,21.11
2018-09-16T20:25:32.177Z,21.11
2018-09-16T20:27:59.894Z,21.11
2018-09-16T20:30:27.824Z,21.10
2018-09-16T20:32:56.506Z,21.10
2018-09-16T20:35:24.437Z,21.09
2018-09-16T20:37:52.079Z,21.10
2018-09-16T20:40:19.756Z,21.09
2018-09-16T20:42:47.417Z,21.09
2018-09-16T20:45:15.138Z,21.10
2018-09-16T20:47:42.802Z,21.09
2018-09-16T20:50:11.389Z,21.08
2018-09-16T20:52:39.103Z,21.07
2018-09-16T20:55:07.091Z,21.09
2018-09-16T20:57:34.824Z,21.08
2018-09-16T21:00:02.534Z,21.07
2018-09-16T21:02:30.263Z,21.07
2018-09-16T21:04:58.346Z,21.07
2018-09-16T21:07:26.033Z,21.07
2018-09-16T21:09:53.823Z,21.07
2018-09-16T21:12:21.926Z,21.07
2018-09-16T21:14:49.617Z,21.07
2018-09-16T21:17:17.734Z,21.06
2018-09-16T21:19:45.525Z,21.06
2018-09-16T21:22:13.520Z,21.06
2018-09-16T21:24:41.385Z,21.05
2018-09-16T21:27:09.272Z,21.06
2018-09-16T21:29:36.911Z,21.05
2018-09-16T21:32:04.930Z,21.04
2018-09-16T21:34:32.648Z,21.04
2018-09-16T21:37:00.556Z,21.03
2018-09-16T21:39:28.480Z,21.03
2018-09-16T21:41:56.415Z,21.03
2018-09-16T21:44:24.542Z,21.02
2018-09-16T21:46:52.781Z,21.01
2018-09-16T21:49:20.582Z,21.01
2018-09-16T21:51:48.240Z,21.01
2018-09-16T21:54:16.507Z,21.00
2018-09-16T21:56:44.493Z,21.00
2018-09-16T21:59:12.733Z,20.99
2018-09-16T22:01:40.676Z,20.98
2018-09-16T22:04:09.200Z,20.98
2018-09-16T22:06:37.188Z,20.95
2018-09-16T22:09:07.376Z,20.96
2018-09-16T22:11:35.134Z,20.95
2018-09-16T22:14:02.773Z,20.95
2018-09-16T22:16:30.437Z,20.94
2018-09-16T22:18:58.388Z,20.93
2018-09-16T22:21:26.083Z,20.93
2018-09-16T22:23:54.324Z,20.93
2018-09-16T22:26:22.862Z,20.91
2018-09-16T22:28:50.857Z,20.91
2018-09-16T22:31:18.508Z,20.90
2018-09-16T22:33:46.961Z,20.90
2018-09-16T22:36:14.891Z,20.89
2018-09-16T22:38:43.026Z,20.88
2018-09-16T22:41:10.731Z,20.88
2018-09-16T22:43:38.724Z,20.87
2018-09-16T22:46:06.368Z,20.87
2018-09-16T22:48:34.414Z,20.86
2018-09-16T22:51:04.484Z,20.86
2018-09-16T22:53:32.728Z,20.86
2018-09-16T22:56:00.725Z,20.83
2018-09-16T22:58:28.972Z,20.83
2018-09-16T23:00:57.198Z,20.81
2018-09-16T23:03:24.856Z,20.81
2018-09-16T23:05:52.522Z,20.80
2018-09-16T23:08:20.225Z,20.80
2018-09-16T23:10:48.520Z,20.80
2018-09-16T23:13:16.197Z,20.77
2018-09-16T23:15:43.884Z,20.77
2018-09-16T23:18:11.553Z,20.77
2018-09-16T23:20:39.290Z,20.74
2018-09-16T23:23:06.957Z,20.76
2018-09-16T23:25:34.706Z,20.75
2018-09-16T23:28:02.523Z,20.74
2018-09-16T23:30:30.141Z,20.74
2018-09-16T23:32:58.111Z,20.73
2018-09-16T23:35:26.044Z,20.72
2018-09-16T23:37:54.071Z,20.71
2018-09-16T23:40:21.682Z,20.69
2018-09-16T23:42:49.395Z,20.68
2018-09-16T23:45:17.106Z,20.68
2018-09-16T23:47:45.021Z,20.68
2018-09-16T23:50:14.126Z,20.69
2018-09-16T23:52:41.811Z,20.68
2018-09-16T23:55:09.482Z,20.67
2018-09-16T23:57:37.731Z,20.65
